createdAt,value
2023-12-05T00:00:53.490Z,26.60
2023-12-05T00:03:22.823Z,29.55
2023-12-05T00:05:52.258Z,25.30
2023-12-05T00:08:21.364Z,27.52
2023-12-05T00:10:50.682Z,30.83
2023-12-05T00:13:19.830Z,30.10
2023-12-05T00:15:49.071Z,24.52
2023-12-05T00:18:19.893Z,27.27
2023-12-05T00:20:49.104Z,26.45
2023-12-05T00:23:18.471Z,24.95
2023-12-05T00:25:47.640Z,24.35
2023-12-05T00:28:16.813Z,26.77
2023-12-05T00:30:45.983Z,24.90
2023-12-05T00:33:17.787Z,27.15
2023-12-05T00:35:48.745Z,24.88
2023-12-05T00:38:17.938Z,29.27
2023-12-05T00:40:47.160Z,24.25
2023-12-05T00:43:16.345Z,21.55
2023-12-05T00:45:45.487Z,30.20
2023-12-05T00:48:14.728Z,25.02
2023-12-05T00:50:46.336Z,31.55
2023-12-05T00:53:17.215Z,28.67
2023-12-05T00:55:46.346Z,30.08
2023-12-05T00:58:15.783Z,29.27
2023-12-05T01:00:44.986Z,27.83
2023-12-05T01:03:15.232Z,27.88
2023-12-05T01:05:45.981Z,28.60
2023-12-05T01:08:16.632Z,29.73
2023-12-05T01:10:45.772Z,25.88
2023-12-05T01:13:14.958Z,29.58
2023-12-05T01:15:44.176Z,28.77
2023-12-05T01:18:14.138Z,33.65
2023-12-05T01:20:43.408Z,26.83
2023-12-05T01:23:12.745Z,27.15
2023-12-05T01:25:43.531Z,29.23
2023-12-05T01:28:12.820Z,32.17
2023-12-05T01:30:42.956Z,32.53
2023-12-05T01:33:12.229Z,25.95
2023-12-05T01:35:41.407Z,27.17
2023-12-05T01:38:10.627Z,25.33
2023-12-05T01:40:39.762Z,27.02
2023-12-05T01:43:10.254Z,29.67
2023-12-05T01:45:39.767Z,28.70
2023-12-05T01:48:10.058Z,27.08
2023-12-05T01:50:39.829Z,22.40
2023-12-05T01:53:09.680Z,23.17
2023-12-05T01:55:39.966Z,28.75
2023-12-05T01:58:11.123Z,30.33
2023-12-05T02:00:41.483Z,30.02
2023-12-05T02:03:11.328Z,23.42
2023-12-05T02:05:40.750Z,29.63
2023-12-05T02:08:13.470Z,24.50
2023-12-05T02:10:42.618Z,26.17
2023-12-05T02:13:13.243Z,24.42
2023-12-05T02:15:42.604Z,30.73
2023-12-05T02:18:20.210Z,26.20
2023-12-05T02:20:54.622Z,24.88
2023-12-05T02:23:56.823Z,30.02
2023-12-05T02:26:43.887Z,27.92
2023-12-05T02:29:14.420Z,28.92
2023-12-05T02:31:43.587Z,26.38
2023-12-05T02:34:13.015Z,25.95
2023-12-05T02:36:53.615Z,28.42
2023-12-05T02:39:31.697Z,21.40
2023-12-05T02:42:04.374Z,29.02
2023-12-05T02:44:42.588Z,26.48
2023-12-05T02:47:15.617Z,27.88
2023-12-05T02:49:44.822Z,28.52
2023-12-05T02:52:14.039Z,28.05
2023-12-05T02:54:43.184Z,28.50
2023-12-05T02:57:13.064Z,32.72
2023-12-05T02:59:43.746Z,24.58
2023-12-05T03:02:13.012Z,25.05
2023-12-05T03:04:44.849Z,21.05
2023-12-05T03:07:14.033Z,24.60
2023-12-05T03:09:43.326Z,30.27
2023-12-05T03:12:12.489Z,28.98
2023-12-05T03:14:43.087Z,31.75
2023-12-05T03:17:12.373Z,26.50
2023-12-05T03:19:41.823Z,25.30
2023-12-05T03:22:11.632Z,27.88
2023-12-05T03:24:40.838Z,30.27
2023-12-05T03:27:10.089Z,29.27
2023-12-05T03:29:39.300Z,28.70
2023-12-05T03:32:10.192Z,33.92
2023-12-05T03:34:39.574Z,30.45
2023-12-05T03:37:08.986Z,32.55
2023-12-05T03:39:38.210Z,32.53
2023-12-05T03:42:07.774Z,27.17
2023-12-05T03:44:36.939Z,25.95
2023-12-05T03:47:06.297Z,30.85
2023-12-05T03:49:37.177Z,28.65
2023-12-05T03:52:07.618Z,31.40
2023-12-05T03:54:36.884Z,30.02
2023-12-05T03:57:06.626Z,28.50
2023-12-05T03:59:35.797Z,28.48
2023-12-05T04:02:05.442Z,35.35
2023-12-05T04:04:36.912Z,25.92
2023-12-05T04:07:07.138Z,33.55
2023-12-05T04:09:36.328Z,29.42
2023-12-05T04:12:06.472Z,22.98
2023-12-05T04:14:35.706Z,31.00
2023-12-05T04:17:05.162Z,25.45
2023-12-05T04:19:34.397Z,30.15
2023-12-05T04:22:05.425Z,24.52
2023-12-05T04:24:35.271Z,28.83
2023-12-05T04:27:04.888Z,28.90
2023-12-05T04:29:33.999Z,26.15
2023-12-05T04:32:03.654Z,31.10
2023-12-05T04:34:33.014Z,30.13
2023-12-05T04:37:02.209Z,32.05
2023-12-05T04:39:32.733Z,29.25
2023-12-05T04:42:02.018Z,25.75
2023-12-05T04:44:31.234Z,32.50
2023-12-05T04:47:01.117Z,27.83
2023-12-05T04:49:30.414Z,30.85
2023-12-05T04:52:00.306Z,32.60
2023-12-05T04:54:29.979Z,30.38
2023-12-05T04:57:00.643Z,32.20
2023-12-05T04:59:29.777Z,27.23
2023-12-05T05:01:59.169Z,31.20
2023-12-05T05:04:28.479Z,22.25
2023-12-05T05:06:57.736Z,29.98
2023-12-05T05:09:27.015Z,31.50
2023-12-05T05:11:56.275Z,25.70
2023-12-05T05:14:26.781Z,29.52
2023-12-05T05:16:55.973Z,32.30
2023-12-05T05:19:25.782Z,29.73
2023-12-05T05:21:55.140Z,34.95
2023-12-05T05:24:24.343Z,31.00
2023-12-05T05:26:53.524Z,24.92
2023-12-05T05:29:22.690Z,27.73
2023-12-05T05:31:53.162Z,31.38
2023-12-05T05:34:22.539Z,30.35
2023-12-05T05:36:52.382Z,30.35
2023-12-05T05:39:22.275Z,29.05
2023-12-05T05:41:51.771Z,33.30
2023-12-05T05:44:20.979Z,27.83
2023-12-05T05:46:50.120Z,26.00
2023-12-05T05:49:20.703Z,28.33
2023-12-05T05:51:49.939Z,29.83
2023-12-05T05:54:19.227Z,29.45
2023-12-05T05:56:48.760Z,30.83
2023-12-05T05:59:17.899Z,41.38
2023-12-05T06:01:49.433Z,40.20
2023-12-05T06:04:18.602Z,40.60
2023-12-05T06:06:49.158Z,42.78
2023-12-05T06:09:18.328Z,49.45
2023-12-05T06:11:47.707Z,43.03
2023-12-05T06:14:16.808Z,53.92
2023-12-05T06:16:45.922Z,47.53
2023-12-05T06:19:15.959Z,42.00
2023-12-05T06:21:45.316Z,53.05
2023-12-05T06:24:16.140Z,41.42
2023-12-05T06:26:45.281Z,52.88
2023-12-05T06:29:14.491Z,41.50
2023-12-05T06:31:43.621Z,32.53
2023-12-05T06:34:12.953Z,27.05
2023-12-05T06:36:42.177Z,28.33
2023-12-05T06:39:11.866Z,39.95
2023-12-05T06:41:42.362Z,31.60
2023-12-05T06:44:11.546Z,30.08
2023-12-05T06:46:40.740Z,26.15
2023-12-05T06:49:10.100Z,28.55
2023-12-05T06:51:39.393Z,29.95
2023-12-05T06:54:08.543Z,27.73
2023-12-05T06:56:37.653Z,27.80
2023-12-05T06:59:08.167Z,31.83
2023-12-05T07:01:37.322Z,30.05
2023-12-05T07:04:06.687Z,35.28
2023-12-05T07:06:36.104Z,35.90
2023-12-05T07:09:06.807Z,35.08
2023-12-05T07:11:36.257Z,36.05
2023-12-05T07:14:05.391Z,38.33
2023-12-05T07:16:37.763Z,39.80
2023-12-05T07:19:08.176Z,40.33
2023-12-05T07:21:40.165Z,39.78
2023-12-05T07:24:09.609Z,48.83
2023-12-05T07:26:38.873Z,39.70
2023-12-05T07:29:08.057Z,45.55
2023-12-05T07:31:38.740Z,37.58
2023-12-05T07:34:08.021Z,37.20
2023-12-05T07:36:42.358Z,42.70
2023-12-05T07:39:14.065Z,36.72
2023-12-05T07:41:43.371Z,32.33
2023-12-05T07:44:13.228Z,29.45
2023-12-05T07:46:44.913Z,31.52
2023-12-05T07:49:14.312Z,32.97
2023-12-05T07:51:43.524Z,33.25
2023-12-05T07:54:12.652Z,34.03
2023-12-05T07:56:41.809Z,30.50
2023-12-05T07:59:11.465Z,32.00
2023-12-05T08:01:43.551Z,31.63
2023-12-05T08:04:14.576Z,37.58
2023-12-05T08:06:43.786Z,36.50
2023-12-05T08:09:13.241Z,32.10
2023-12-05T08:11:42.545Z,36.17
2023-12-05T08:14:11.629Z,32.92
2023-12-05T08:16:43.156Z,28.45
2023-12-05T08:19:14.239Z,36.00
2023-12-05T08:21:43.756Z,33.05
2023-12-05T08:24:14.056Z,32.13
2023-12-05T08:26:43.402Z,38.00
2023-12-05T08:29:14.072Z,30.83
2023-12-05T08:31:43.426Z,35.83
2023-12-05T08:34:16.833Z,38.28
2023-12-05T08:36:46.603Z,30.40
2023-12-05T08:39:15.765Z,37.45
2023-12-05T08:41:45.307Z,33.17
2023-12-05T08:44:14.675Z,31.45
2023-12-05T08:46:44.464Z,31.73
2023-12-05T08:49:15.367Z,30.83
2023-12-05T08:51:45.185Z,34.90
2023-12-05T08:54:14.468Z,48.67
2023-12-05T08:56:43.730Z,47.83
2023-12-05T08:59:12.910Z,32.60
2023-12-05T09:01:42.532Z,31.73
2023-12-05T09:04:11.842Z,29.95
2023-12-05T09:06:43.530Z,31.65
2023-12-05T09:09:12.779Z,32.25
2023-12-05T09:11:42.013Z,32.45
2023-12-05T09:14:11.183Z,37.03
2023-12-05T09:16:40.592Z,36.17
2023-12-05T09:19:09.855Z,31.45
2023-12-05T09:21:39.302Z,34.30
2023-12-05T09:24:11.569Z,48.80
2023-12-05T09:26:40.864Z,39.05
2023-12-05T09:29:09.954Z,36.30
2023-12-05T09:31:39.715Z,38.20
2023-12-05T09:34:08.920Z,51.00
2023-12-05T09:36:38.354Z,33.53
2023-12-05T09:39:07.609Z,41.08
2023-12-05T09:41:49.237Z,31.08
2023-12-05T09:44:22.664Z,37.72
2023-12-05T09:46:58.113Z,41.47
2023-12-05T09:49:29.960Z,46.33
2023-12-05T09:52:02.252Z,47.60
2023-12-05T09:54:34.540Z,44.85
2023-12-05T09:57:06.610Z,45.63
2023-12-05T09:59:36.236Z,46.30
2023-12-05T10:02:07.623Z,42.28
2023-12-05T10:04:45.046Z,40.67
2023-12-05T10:07:15.591Z,46.72
2023-12-05T10:09:46.309Z,43.47
2023-12-05T10:12:18.041Z,43.55
2023-12-05T10:14:47.569Z,38.65
2023-12-05T10:17:16.774Z,48.92
2023-12-05T10:19:46.506Z,34.40
2023-12-05T10:22:16.498Z,33.95
2023-12-05T10:24:46.893Z,41.10
2023-12-05T10:27:18.362Z,39.60
2023-12-05T10:29:47.784Z,42.95
2023-12-05T10:32:16.999Z,40.42
2023-12-05T10:34:50.292Z,37.03
2023-12-05T10:37:23.808Z,44.40
2023-12-05T10:39:54.302Z,31.98
2023-12-05T10:42:29.089Z,33.95
2023-12-05T10:44:59.145Z,41.53
2023-12-05T10:47:29.628Z,35.63
2023-12-05T10:49:59.912Z,29.20
2023-12-05T10:52:32.780Z,38.03
2023-12-05T10:55:02.071Z,35.97
2023-12-05T10:57:35.988Z,33.45
2023-12-05T11:00:08.769Z,45.75
2023-12-05T11:02:40.194Z,48.78
2023-12-05T11:05:12.169Z,44.72
2023-12-05T11:07:42.613Z,42.88
2023-12-05T11:10:12.595Z,50.42
2023-12-05T11:12:43.652Z,36.67
2023-12-05T11:15:16.733Z,41.50
2023-12-05T11:17:52.517Z,39.03
2023-12-05T11:20:40.010Z,39.70
2023-12-05T11:23:47.365Z,35.33
2023-12-05T11:26:45.344Z,43.08
2023-12-05T11:29:54.686Z,38.90
2023-12-05T11:32:42.016Z,35.30
2023-12-05T11:35:18.176Z,39.60
2023-12-05T11:38:08.520Z,37.25
2023-12-05T11:40:37.842Z,36.45
2023-12-05T11:43:09.087Z,37.63
2023-12-05T11:45:42.006Z,40.70
2023-12-05T11:48:14.944Z,32.97
2023-12-05T11:50:46.297Z,36.20
2023-12-05T11:53:20.736Z,34.25
2023-12-05T11:55:51.023Z,31.48
2023-12-05T11:58:38.115Z,37.47
2023-12-05T12:01:20.414Z,27.50
2023-12-05T12:03:53.814Z,38.42
2023-12-05T12:06:24.882Z,34.47
2023-12-05T12:08:57.747Z,29.17
2023-12-05T12:11:27.061Z,29.92
2023-12-05T12:13:56.269Z,27.90
2023-12-05T12:16:28.669Z,28.00
2023-12-05T12:19:04.351Z,29.35
2023-12-05T12:21:34.232Z,28.02
2023-12-05T12:24:03.962Z,31.02
2023-12-05T12:26:34.724Z,30.90
2023-12-05T12:29:08.639Z,33.08
2023-12-05T12:31:39.236Z,32.72
2023-12-05T12:34:09.407Z,33.75
2023-12-05T12:36:39.561Z,40.92
2023-12-05T12:39:09.381Z,36.92
2023-12-05T12:41:40.315Z,33.72
2023-12-05T12:44:10.919Z,39.90
2023-12-05T12:46:43.223Z,38.10
2023-12-05T12:49:12.931Z,32.00
2023-12-05T12:51:43.151Z,34.40
2023-12-05T12:54:12.506Z,32.33
2023-12-05T12:56:42.976Z,29.60
2023-12-05T12:59:13.557Z,28.88
2023-12-05T13:01:46.049Z,30.35
2023-12-05T13:04:16.794Z,36.10
2023-12-05T13:06:48.195Z,29.75
2023-12-05T13:09:19.093Z,26.48
2023-12-05T13:11:49.789Z,33.45
2023-12-05T13:14:20.825Z,31.00
2023-12-05T13:16:51.468Z,31.48
2023-12-05T13:19:25.547Z,27.13
2023-12-05T13:21:55.020Z,26.98
2023-12-05T13:24:24.276Z,29.77
2023-12-05T13:26:54.032Z,32.88
2023-12-05T13:29:23.337Z,28.88
2023-12-05T13:31:53.895Z,29.67
2023-12-05T13:34:24.279Z,30.63
2023-12-05T13:36:53.782Z,31.08
2023-12-05T13:39:23.016Z,31.85
2023-12-05T13:41:52.504Z,37.55
2023-12-05T13:44:21.642Z,32.53
2023-12-05T13:46:50.773Z,28.27
2023-12-05T13:49:21.431Z,32.47
2023-12-05T13:51:50.598Z,30.02
2023-12-05T13:54:19.980Z,34.38
2023-12-05T13:56:49.135Z,30.05
2023-12-05T13:59:18.612Z,32.08
2023-12-05T14:01:48.369Z,34.47
2023-12-05T14:04:20.275Z,32.85
2023-12-05T14:06:49.584Z,34.05
2023-12-05T14:09:19.054Z,30.27
2023-12-05T14:11:50.504Z,31.10
2023-12-05T14:14:19.717Z,29.02
2023-12-05T14:16:48.897Z,32.55
2023-12-05T14:19:18.750Z,32.03
2023-12-05T14:21:49.976Z,33.40
2023-12-05T14:24:19.149Z,37.30
2023-12-05T14:26:48.336Z,34.20
2023-12-05T14:29:17.535Z,28.15
2023-12-05T14:31:46.688Z,33.30
2023-12-05T14:34:15.887Z,34.28
2023-12-05T14:36:45.184Z,32.05
2023-12-05T14:39:18.398Z,33.95
2023-12-05T14:41:49.782Z,33.63
2023-12-05T14:44:19.108Z,30.92
2023-12-05T14:46:48.300Z,36.25
2023-12-05T14:49:17.918Z,40.75
2023-12-05T14:51:47.100Z,35.70
2023-12-05T14:54:17.625Z,42.00
2023-12-05T14:56:46.742Z,32.20
2023-12-05T14:59:17.192Z,37.28
2023-12-05T15:01:46.430Z,39.95
2023-12-05T15:04:15.671Z,48.70
2023-12-05T15:06:44.906Z,40.05
2023-12-05T15:09:14.052Z,40.17
2023-12-05T15:11:44.609Z,43.95
2023-12-05T15:14:13.825Z,37.72
2023-12-05T15:16:44.384Z,53.40
2023-12-05T15:19:15.363Z,47.70
2023-12-05T15:21:45.235Z,54.50
2023-12-05T15:24:14.599Z,43.40
2023-12-05T15:26:47.766Z,44.78
2023-12-05T15:29:22.285Z,43.22
2023-12-05T15:31:54.759Z,46.03
2023-12-05T15:34:24.054Z,36.95
2023-12-05T15:36:53.221Z,40.80
2023-12-05T15:39:22.418Z,39.60
2023-12-05T15:41:53.020Z,39.00
2023-12-05T15:44:22.249Z,34.75
2023-12-05T15:46:51.368Z,31.92
2023-12-05T15:49:20.724Z,37.22
2023-12-05T15:51:49.936Z,41.15
2023-12-05T15:54:19.325Z,43.53
2023-12-05T15:56:48.477Z,43.95
2023-12-05T15:59:21.039Z,42.63
2023-12-05T16:01:50.665Z,51.15
2023-12-05T16:04:20.257Z,38.85
2023-12-05T16:06:49.651Z,41.83
2023-12-05T16:09:21.862Z,38.97
2023-12-05T16:11:52.863Z,41.35
2023-12-05T16:14:25.688Z,45.05
2023-12-05T16:16:55.553Z,42.47
2023-12-05T16:19:25.464Z,40.38
2023-12-05T16:21:55.595Z,48.08
2023-12-05T16:24:25.201Z,43.67
2023-12-05T16:26:54.933Z,43.35
2023-12-05T16:29:26.833Z,41.40
2023-12-05T16:31:56.344Z,44.13
2023-12-05T16:34:25.704Z,38.83
2023-12-05T16:36:56.124Z,37.42
2023-12-05T16:39:25.474Z,39.90
2023-12-05T16:41:55.253Z,42.05
2023-12-05T16:44:26.663Z,36.53
2023-12-05T16:46:55.831Z,43.03
2023-12-05T16:49:25.104Z,40.83
2023-12-05T16:51:54.473Z,42.67
2023-12-05T16:54:23.977Z,43.53
2023-12-05T16:56:53.734Z,38.25
2023-12-05T16:59:28.281Z,34.70
2023-12-05T17:02:02.907Z,34.38
2023-12-05T17:04:33.518Z,39.92
2023-12-05T17:07:02.981Z,40.65
2023-12-05T17:09:32.844Z,40.78
2023-12-05T17:12:03.045Z,41.90
2023-12-05T17:14:33.245Z,39.17
2023-12-05T17:17:05.576Z,35.58
2023-12-05T17:19:35.617Z,38.80
2023-12-05T17:22:05.344Z,41.83
2023-12-05T17:24:34.632Z,38.03
2023-12-05T17:27:04.705Z,47.00
2023-12-05T17:29:34.561Z,36.08
2023-12-05T17:32:06.778Z,38.25
2023-12-05T17:34:36.524Z,45.65
2023-12-05T17:37:06.156Z,42.00
2023-12-05T17:39:35.506Z,44.67
2023-12-05T17:42:05.177Z,39.40
2023-12-05T17:44:34.337Z,41.90
2023-12-05T17:47:05.292Z,42.35
2023-12-05T17:49:34.450Z,39.25
2023-12-05T17:52:03.830Z,42.88
2023-12-05T17:54:33.213Z,38.03
2023-12-05T17:57:02.398Z,41.25
2023-12-05T17:59:32.012Z,41.38
2023-12-05T18:02:01.274Z,51.15
2023-12-05T18:04:32.121Z,40.60
2023-12-05T18:07:50.235Z,42.80
2023-12-05T18:09:52.230Z,52.28
2023-12-05T18:12:22.793Z,49.70
2023-12-05T18:14:52.045Z,47.42
2023-12-05T18:17:21.971Z,53.28
2023-12-05T18:19:53.479Z,43.13
2023-12-05T18:22:22.826Z,44.97
2023-12-05T18:24:52.056Z,44.72
2023-12-05T18:27:21.539Z,41.28
2023-12-05T18:29:52.068Z,43.42
2023-12-05T18:32:22.138Z,43.08
2023-12-05T18:34:54.068Z,45.10
2023-12-05T18:37:23.693Z,47.20
2023-12-05T18:39:53.373Z,46.38
2023-12-05T18:42:22.829Z,43.33
2023-12-05T18:44:51.979Z,48.08
2023-12-05T18:47:21.566Z,53.28
2023-12-05T18:49:54.279Z,48.22
2023-12-05T18:52:23.465Z,51.83
2023-12-05T18:54:53.295Z,50.70
2023-12-05T18:57:22.429Z,48.78
2023-12-05T18:59:51.788Z,42.28
2023-12-05T19:02:21.045Z,52.97
2023-12-05T19:04:52.582Z,45.10
2023-12-05T19:07:22.526Z,49.00
2023-12-05T19:09:52.647Z,50.67
2023-12-05T19:12:21.859Z,52.13
2023-12-05T19:14:51.105Z,51.33
2023-12-05T19:17:20.767Z,57.92
2023-12-05T19:19:50.194Z,51.22
2023-12-05T19:22:20.859Z,52.03
2023-12-05T19:24:50.076Z,48.30
2023-12-05T19:27:19.642Z,48.38
2023-12-05T19:29:49.645Z,45.60
2023-12-05T19:32:18.778Z,41.70
2023-12-05T19:34:48.350Z,47.58
2023-12-05T19:37:20.980Z,49.70
2023-12-05T19:39:50.422Z,49.05
2023-12-05T19:42:21.202Z,53.13
2023-12-05T19:44:50.410Z,50.53
2023-12-05T19:47:24.089Z,50.78
2023-12-05T19:49:54.159Z,47.63
2023-12-05T19:52:24.775Z,48.20
2023-12-05T19:54:54.355Z,47.95
2023-12-05T19:57:23.640Z,44.67
2023-12-05T19:59:52.752Z,41.88
2023-12-05T20:02:22.081Z,42.85
2023-12-05T20:04:51.378Z,50.20
2023-12-05T20:07:21.265Z,49.47
2023-12-05T20:09:56.927Z,45.03
2023-12-05T20:12:26.537Z,46.00
2023-12-05T20:14:59.161Z,46.85
2023-12-05T20:17:29.683Z,46.35
2023-12-05T20:19:59.616Z,49.50
2023-12-05T20:22:29.906Z,48.25
2023-12-05T20:25:00.880Z,43.92
2023-12-05T20:27:31.195Z,48.03
2023-12-05T20:30:00.631Z,48.47
2023-12-05T20:32:30.078Z,47.35
2023-12-05T20:34:59.340Z,46.72
2023-12-05T20:37:28.494Z,50.60
2023-12-05T20:39:59.839Z,43.75
2023-12-05T20:42:29.855Z,49.72
2023-12-05T20:44:59.372Z,46.83
2023-12-05T20:47:28.663Z,46.15
2023-12-05T20:49:58.268Z,56.85
2023-12-05T20:52:27.418Z,49.75
2023-12-05T20:54:56.531Z,51.08
2023-12-05T20:57:28.229Z,59.38
2023-12-05T20:59:57.527Z,47.92
2023-12-05T21:02:26.691Z,53.35
2023-12-05T21:04:55.834Z,49.50
2023-12-05T21:07:25.783Z,53.97
2023-12-05T21:09:56.000Z,47.22
2023-12-05T21:12:26.531Z,49.17
2023-12-05T21:14:55.635Z,44.65
2023-12-05T21:17:25.448Z,50.60
2023-12-05T21:19:55.500Z,55.00
2023-12-05T21:22:24.631Z,51.42
2023-12-05T21:24:54.455Z,55.63
2023-12-05T21:27:23.778Z,54.08
2023-12-05T21:29:54.687Z,47.13
2023-12-05T21:32:23.866Z,46.60
2023-12-05T21:34:53.153Z,45.35
2023-12-05T21:37:22.617Z,58.60
2023-12-05T21:39:51.992Z,59.38
2023-12-05T21:42:21.168Z,58.33
2023-12-05T21:44:50.315Z,58.28
2023-12-05T21:47:21.324Z,52.03
2023-12-05T21:49:50.645Z,56.10
2023-12-05T21:52:19.845Z,50.53
2023-12-05T21:54:49.620Z,57.83
2023-12-05T21:57:19.043Z,58.17
2023-12-05T21:59:48.414Z,53.47
2023-12-05T22:02:17.549Z,60.13
2023-12-05T22:04:48.089Z,56.05
2023-12-05T22:07:17.441Z,49.40
2023-12-05T22:09:46.595Z,53.80
2023-12-05T22:12:16.283Z,54.58
2023-12-05T22:14:45.419Z,57.88
2023-12-05T22:17:14.623Z,52.67
2023-12-05T22:19:43.794Z,52.63
2023-12-05T22:22:14.373Z,62.83
2023-12-05T22:24:44.197Z,49.25
2023-12-05T22:27:13.401Z,55.65
2023-12-05T22:29:46.685Z,56.83
2023-12-05T22:32:16.584Z,56.38
2023-12-05T22:34:45.834Z,55.75
2023-12-05T22:37:16.470Z,51.10
2023-12-05T22:39:45.656Z,50.63
2023-12-05T22:42:14.818Z,56.40
2023-12-05T22:44:44.039Z,56.95
2023-12-05T22:47:13.212Z,56.90
2023-12-05T22:49:42.356Z,58.60
2023-12-05T22:52:11.614Z,55.47
2023-12-05T22:54:42.167Z,62.35
2023-12-05T22:57:11.365Z,59.58
2023-12-05T22:59:40.570Z,60.45
2023-12-05T23:02:10.596Z,65.55
2023-12-05T23:04:39.887Z,61.03
2023-12-05T23:07:09.010Z,54.00
2023-12-05T23:09:38.409Z,63.38
2023-12-05T23:12:09.970Z,60.38
2023-12-05T23:14:39.165Z,56.42
2023-12-05T23:17:08.351Z,54.80
2023-12-05T23:19:37.568Z,52.53
2023-12-05T23:22:06.725Z,62.92
2023-12-05T23:24:35.891Z,57.20
2023-12-05T23:27:05.452Z,47.60
2023-12-05T23:29:35.999Z,57.22
2023-12-05T23:32:06.635Z,57.55
2023-12-05T23:34:35.832Z,56.92
2023-12-05T23:37:05.472Z,53.40
2023-12-05T23:39:34.669Z,60.33
2023-12-05T23:42:03.830Z,54.72
2023-12-05T23:44:32.945Z,55.65
2023-12-05T23:47:03.441Z,61.97
2023-12-05T23:49:32.774Z,56.63
2023-12-05T23:52:02.035Z,53.30
2023-12-05T23:54:31.915Z,67.55
2023-12-05T23:57:01.149Z,60.45
2023-12-05T23:59:30.302Z,61.05
